sensor_id;sensor_type;location;lat;lon;timestamp;pressure;altitude;pressure_sealevel;temperature;humidity
34925;BME280;21130;51.728;8.748;2023-02-28T00:01:07;101873.81;;;-3.29;100.00
34925;BME280;21130;51.728;8.748;2023-02-28T00:03:33;101876.53;;;-3.29;100.00
34925;BME280;21130;51.728;8.748;2023-02-28T00:06:01;101871.94;;;-3.29;100.00
34925;BME280;21130;51.728;8.748;2023-02-28T00:08:29;101864.44;;;-3.25;100.00
34925;BME280;21130;51.728;8.748;2023-02-28T00:10:55;101867.06;;;-3.23;100.00
34925;BME280;21130;51.728;8.748;2023-02-28T00:13:22;101868.78;;;-3.22;100.00
34925;BME280;21130;51.728;8.748;2023-02-28T00:15:58;101858.50;;;-3.19;100.00
34925;BME280;21130;51.728;8.748;2023-02-28T00:18:25;101858.41;;;-3.06;100.00
34925;BME280;21130;51.728;8.748;2023-02-28T00:20:51;101861.63;;;-3.12;100.00
34925;BME280;21130;51.728;8.748;2023-02-28T00:23:17;101856.53;;;-3.17;100.00
34925;BME280;21130;51.728;8.748;2023-02-28T00:25:46;101862.63;;;-3.13;100.00
34925;BME280;21130;51.728;8.748;2023-02-28T00:28:12;101858.50;;;-3.19;100.00
34925;BME280;21130;51.728;8.748;2023-02-28T00:30:39;101862.22;;;-3.09;100.00
34925;BME280;21130;51.728;8.748;2023-02-28T00:33:05;101865.06;;;-3.21;100.00
34925;BME280;21130;51.728;8.748;2023-02-28T00:35:32;101860.88;;;-3.26;100.00
34925;BME280;21130;51.728;8.748;2023-02-28T00:37:58;101858.88;;;-3.35;100.00
34925;BME280;21130;51.728;8.748;2023-02-28T00:40:26;101863.81;;;-3.40;100.00
34925;BME280;21130;51.728;8.748;2023-02-28T00:42:53;101854.41;;;-3.47;100.00
34925;BME280;21130;51.728;8.748;2023-02-28T00:45:20;101861.81;;;-3.49;100.00
34925;BME280;21130;51.728;8.748;2023-02-28T00:47:47;101862.53;;;-3.58;100.00
34925;BME280;21130;51.728;8.748;2023-02-28T00:50:16;101862.38;;;-3.68;100.00
34925;BME280;21130;51.728;8.748;2023-02-28T00:52:42;101852.25;;;-3.77;100.00
34925;BME280;21130;51.728;8.748;2023-02-28T00:55:09;101864.44;;;-3.83;100.00
34925;BME280;21130;51.728;8.748;2023-02-28T00:57:36;101870.31;;;-3.89;100.00
34925;BME280;21130;51.728;8.748;2023-02-28T01:00:06;101858.94;;;-3.94;100.00
34925;BME280;21130;51.728;8.748;2023-02-28T01:02:33;101867.06;;;-4.05;100.00
34925;BME280;21130;51.728;8.748;2023-02-28T01:04:59;101863.06;;;-4.13;100.00
34925;BME280;21130;51.728;8.748;2023-02-28T01:07:26;101864.28;;;-4.17;100.00
34925;BME280;21130;51.728;8.748;2023-02-28T01:09:52;101856.38;;;-4.20;100.00
34925;BME280;21130;51.728;8.748;2023-02-28T01:12:19;101859.22;;;-4.21;100.00
34925;BME280;21130;51.728;8.748;2023-02-28T01:14:45;101861.06;;;-4.22;100.00
34925;BME280;21130;51.728;8.748;2023-02-28T01:17:13;101861.63;;;-4.29;100.00
34925;BME280;21130;51.728;8.748;2023-02-28T01:19:39;101865.50;;;-4.21;100.00
34925;BME280;21130;51.728;8.748;2023-02-28T01:22:06;101860.09;;;-4.21;100.00
34925;BME280;21130;51.728;8.748;2023-02-28T01:24:32;101861.75;;;-4.31;100.00
34925;BME280;21130;51.728;8.748;2023-02-28T01:26:59;101864.28;;;-4.41;100.00
34925;BME280;21130;51.728;8.748;2023-02-28T01:29:26;101860.19;;;-4.46;100.00
34925;BME280;21130;51.728;8.748;2023-02-28T01:31:52;101865.50;;;-4.45;100.00
34925;BME280;21130;51.728;8.748;2023-02-28T01:34:20;101861.28;;;-4.49;100.00
34925;BME280;21130;51.728;8.748;2023-02-28T01:36:46;101870.63;;;-4.53;100.00
34925;BME280;21130;51.728;8.748;2023-02-28T01:39:13;101856.22;;;-4.53;100.00
34925;BME280;21130;51.728;8.748;2023-02-28T01:41:40;101854.28;;;-4.64;100.00
34925;BME280;21130;51.728;8.748;2023-02-28T01:47:12;101858.84;;;-4.65;100.00
34925;BME280;21130;51.728;8.748;2023-02-28T01:49:40;101860.25;;;-4.72;100.00
34925;BME280;21130;51.728;8.748;2023-02-28T01:52:07;101866.91;;;-4.76;100.00
34925;BME280;21130;51.728;8.748;2023-02-28T01:54:35;101863.44;;;-4.78;100.00
34925;BME280;21130;51.728;8.748;2023-02-28T01:57:04;101854.53;;;-4.80;100.00
34925;BME280;21130;51.728;8.748;2023-02-28T01:59:33;101852.50;;;-4.89;100.00
34925;BME280;21130;51.728;8.748;2023-02-28T02:02:02;101852.63;;;-4.91;100.00
34925;BME280;21130;51.728;8.748;2023-02-28T02:04:36;101856.66;;;-4.96;100.00
34925;BME280;21130;51.728;8.748;2023-02-28T02:07:05;101858.06;;;-5.04;100.00
34925;BME280;21130;51.728;8.748;2023-02-28T02:09:31;101861.97;;;-5.08;100.00
34925;BME280;21130;51.728;8.748;2023-02-28T02:12:00;101861.31;;;-5.11;100.00
34925;BME280;21130;51.728;8.748;2023-02-28T02:14:40;101859.91;;;-5.17;100.00
34925;BME280;21130;51.728;8.748;2023-02-28T02:17:18;101853.31;;;-5.13;100.00
34925;BME280;21130;51.728;8.748;2023-02-28T02:20:16;101855.25;;;-5.15;100.00
34925;BME280;21130;51.728;8.748;2023-02-28T02:23:07;101860.78;;;-5.16;100.00
34925;BME280;21130;51.728;8.748;2023-02-28T02:25:43;101849.84;;;-5.15;100.00
34925;BME280;21130;51.728;8.748;2023-02-28T02:28:48;101860.13;;;-5.20;100.00
34925;BME280;21130;51.728;8.748;2023-02-28T02:31:32;101855.38;;;-5.16;100.00
34925;BME280;21130;51.728;8.748;2023-02-28T02:34:17;101857.63;;;-5.10;100.00
34925;BME280;21130;51.728;8.748;2023-02-28T02:36:52;101847.91;;;-5.13;100.00
34925;BME280;21130;51.728;8.748;2023-02-28T02:39:30;101852.53;;;-5.15;100.00
34925;BME280;21130;51.728;8.748;2023-02-28T02:42:00;101855.56;;;-5.19;100.00
34925;BME280;21130;51.728;8.748;2023-02-28T02:44:31;101856.88;;;-5.12;100.00
34925;BME280;21130;51.728;8.748;2023-02-28T02:47:06;101853.63;;;-5.17;100.00
34925;BME280;21130;51.728;8.748;2023-02-28T02:49:36;101857.72;;;-5.12;100.00
34925;BME280;21130;51.728;8.748;2023-02-28T02:52:07;101849.97;;;-5.16;100.00
34925;BME280;21130;51.728;8.748;2023-02-28T02:54:36;101852.34;;;-5.25;100.00
34925;BME280;21130;51.728;8.748;2023-02-28T02:57:07;101851.94;;;-5.31;100.00
34925;BME280;21130;51.728;8.748;2023-02-28T02:59:35;101851.25;;;-5.35;100.00
34925;BME280;21130;51.728;8.748;2023-02-28T03:02:06;101845.44;;;-5.29;100.00
34925;BME280;21130;51.728;8.748;2023-02-28T03:04:42;101849.41;;;-5.09;100.00
34925;BME280;21130;51.728;8.748;2023-02-28T03:07:09;101847.78;;;-5.11;100.00
34925;BME280;21130;51.728;8.748;2023-02-28T03:09:36;101858.25;;;-5.07;100.00
34925;BME280;21130;51.728;8.748;2023-02-28T03:12:03;101855.56;;;-5.19;100.00
34925;BME280;21130;51.728;8.748;2023-02-28T03:14:41;101858.81;;;-5.27;100.00
34925;BME280;21130;51.728;8.748;2023-02-28T03:17:24;101849.75;;;-5.26;100.00
34925;BME280;21130;51.728;8.748;2023-02-28T03:20:02;101848.47;;;-5.33;100.00
34925;BME280;21130;51.728;8.748;2023-02-28T03:22:55;101852.47;;;-5.39;100.00
34925;BME280;21130;51.728;8.748;2023-02-28T03:25:33;101858.19;;;-5.44;100.00
34925;BME280;21130;51.728;8.748;2023-02-28T03:28:08;101859.16;;;-5.45;100.00
34925;BME280;21130;51.728;8.748;2023-02-28T03:30:42;101849.31;;;-5.46;100.00
34925;BME280;21130;51.728;8.748;2023-02-28T03:33:14;101856.44;;;-5.45;100.00
34925;BME280;21130;51.728;8.748;2023-02-28T03:35:46;101856.03;;;-5.38;100.00
34925;BME280;21130;51.728;8.748;2023-02-28T03:38:18;101860.78;;;-5.42;100.00
34925;BME280;21130;51.728;8.748;2023-02-28T03:40:48;101854.19;;;-5.51;100.00
34925;BME280;21130;51.728;8.748;2023-02-28T03:43:20;101855.38;;;-5.55;100.00
34925;BME280;21130;51.728;8.748;2023-02-28T03:45:50;101846.94;;;-5.63;100.00
34925;BME280;21130;51.728;8.748;2023-02-28T03:48:20;101853.63;;;-5.69;100.00
34925;BME280;21130;51.728;8.748;2023-02-28T03:50:53;101853.84;;;-5.72;100.00
34925;BME280;21130;51.728;8.748;2023-02-28T03:53:25;101853.41;;;-5.66;100.00
34925;BME280;21130;51.728;8.748;2023-02-28T03:55:56;101849.09;;;-5.68;100.00
34925;BME280;21130;51.728;8.748;2023-02-28T03:58:28;101852.97;;;-5.72;100.00
34925;BME280;21130;51.728;8.748;2023-02-28T04:01:02;101849.72;;;-5.77;100.00
34925;BME280;21130;51.728;8.748;2023-02-28T04:03:33;101853.72;;;-5.83;100.00
34925;BME280;21130;51.728;8.748;2023-02-28T04:06:02;101851.22;;;-5.86;100.00
34925;BME280;21130;51.728;8.748;2023-02-28T04:08:29;101855.56;;;-5.83;100.00
34925;BME280;21130;51.728;8.748;2023-02-28T04:10:59;101847.97;;;-5.91;100.00
34925;BME280;21130;51.728;8.748;2023-02-28T04:13:27;101858.28;;;-5.96;100.00
34925;BME280;21130;51.728;8.748;2023-02-28T04:15:54;101858.16;;;-5.95;100.00
34925;BME280;21130;51.728;8.748;2023-02-28T04:18:20;101852.97;;;-5.98;100.00
34925;BME280;21130;51.728;8.748;2023-02-28T04:20:47;101853.81;;;-5.84;100.00
34925;BME280;21130;51.728;8.748;2023-02-28T04:23:15;101854.72;;;-5.71;100.00
34925;BME280;21130;51.728;8.748;2023-02-28T04:25:41;101851.00;;;-5.83;100.00
34925;BME280;21130;51.728;8.748;2023-02-28T04:28:07;101857.94;;;-5.92;100.00
34925;BME280;21130;51.728;8.748;2023-02-28T04:30:35;101848.75;;;-5.89;100.00
34925;BME280;21130;51.728;8.748;2023-02-28T04:33:01;101856.94;;;-5.91;100.00
34925;BME280;21130;51.728;8.748;2023-02-28T04:35:27;101857.41;;;-5.97;100.00
34925;BME280;21130;51.728;8.748;2023-02-28T04:37:54;101853.19;;;-6.01;100.00
34925;BME280;21130;51.728;8.748;2023-02-28T04:40:22;101848.41;;;-5.97;100.00
34925;BME280;21130;51.728;8.748;2023-02-28T04:42:48;101858.47;;;-5.99;100.00
34925;BME280;21130;51.728;8.748;2023-02-28T04:45:15;101850.25;;;-5.98;100.00
34925;BME280;21130;51.728;8.748;2023-02-28T04:47:42;101858.47;;;-5.99;100.00
34925;BME280;21130;51.728;8.748;2023-02-28T04:50:09;101862.59;;;-5.94;100.00
34925;BME280;21130;51.728;8.748;2023-02-28T04:52:36;101858.78;;;-5.91;100.00
34925;BME280;21130;51.728;8.748;2023-02-28T04:55:03;101859.66;;;-5.91;100.00
34925;BME280;21130;51.728;8.748;2023-02-28T04:57:32;101863.13;;;-5.89;100.00
34925;BME280;21130;51.728;8.748;2023-02-28T04:59:58;101857.59;;;-5.87;100.00
34925;BME280;21130;51.728;8.748;2023-02-28T05:02:24;101861.19;;;-5.87;100.00
34925;BME280;21130;51.728;8.748;2023-02-28T05:04:51;101849.28;;;-5.84;100.00
34925;BME280;21130;51.728;8.748;2023-02-28T05:07:17;101856.19;;;-5.80;100.00
34925;BME280;21130;51.728;8.748;2023-02-28T05:09:44;101868.34;;;-5.73;100.00
34925;BME280;21130;51.728;8.748;2023-02-28T05:12:10;101856.44;;;-5.70;100.00
34925;BME280;21130;51.728;8.748;2023-02-28T05:14:38;101866.63;;;-5.61;100.00
34925;BME280;21130;51.728;8.748;2023-02-28T05:17:04;101861.97;;;-5.59;100.00
34925;BME280;21130;51.728;8.748;2023-02-28T05:19:31;101868.03;;;-5.55;100.00
34925;BME280;21130;51.728;8.748;2023-02-28T05:21:57;101862.06;;;-5.48;100.00
34925;BME280;21130;51.728;8.748;2023-02-28T05:24:24;101861.44;;;-5.38;100.00
34925;BME280;21130;51.728;8.748;2023-02-28T05:26:53;101866.84;;;-5.38;100.00
34925;BME280;21130;51.728;8.748;2023-02-28T05:29:20;101862.75;;;-5.31;100.00
34925;BME280;21130;51.728;8.748;2023-02-28T05:31:48;101865.88;;;-5.25;100.00
34925;BME280;21130;51.728;8.748;2023-02-28T05:34:14;101862.97;;;-5.22;100.00
34925;BME280;21130;51.728;8.748;2023-02-28T05:36:41;101860.13;;;-5.20;100.00
34925;BME280;21130;51.728;8.748;2023-02-28T05:39:08;101864.47;;;-5.17;100.00
34925;BME280;21130;51.728;8.748;2023-02-28T05:41:39;101865.00;;;-5.12;100.00
34925;BME280;21130;51.728;8.748;2023-02-28T05:44:06;101866.06;;;-5.02;100.00
34925;BME280;21130;51.728;8.748;2023-02-28T05:46:32;101860.22;;;-4.96;100.00
34925;BME280;21130;51.728;8.748;2023-02-28T05:49:00;101873.09;;;-5.00;100.00
34925;BME280;21130;51.728;8.748;2023-02-28T05:51:27;101867.06;;;-5.03;100.00
34925;BME280;21130;51.728;8.748;2023-02-28T05:53:54;101873.97;;;-5.12;100.00
34925;BME280;21130;51.728;8.748;2023-02-28T05:56:21;101870.09;;;-5.21;100.00
34925;BME280;21130;51.728;8.748;2023-02-28T05:58:48;101874.53;;;-5.32;100.00
34925;BME280;21130;51.728;8.748;2023-02-28T06:01:25;101873.22;;;-5.39;100.00
34925;BME280;21130;51.728;8.748;2023-02-28T06:03:56;101877.66;;;-5.51;100.00
34925;BME280;21130;51.728;8.748;2023-02-28T06:06:24;101878.09;;;-5.57;100.00
34925;BME280;21130;51.728;8.748;2023-02-28T06:08:50;101875.69;;;-5.62;100.00
34925;BME280;21130;51.728;8.748;2023-02-28T06:11:17;101869.97;;;-5.70;100.00
34925;BME280;21130;51.728;8.748;2023-02-28T06:13:45;101877.53;;;-5.75;100.00
34925;BME280;21130;51.728;8.748;2023-02-28T06:16:11;101882.47;;;-5.82;100.00
34925;BME280;21130;51.728;8.748;2023-02-28T06:18:38;101878.47;;;-5.89;100.00
34925;BME280;21130;51.728;8.748;2023-02-28T06:21:04;101881.28;;;-5.91;100.00
34925;BME280;21130;51.728;8.748;2023-02-28T06:23:32;101886.69;;;-5.91;100.00
34925;BME280;21130;51.728;8.748;2023-02-28T06:25:59;101886.16;;;-5.96;100.00
34925;BME280;21130;51.728;8.748;2023-02-28T06:28:26;101887.16;;;-5.97;100.00
34925;BME280;21130;51.728;8.748;2023-02-28T06:30:52;101887.53;;;-6.03;100.00
34925;BME280;21130;51.728;8.748;2023-02-28T06:33:18;101882.13;;;-6.03;100.00
34925;BME280;21130;51.728;8.748;2023-02-28T06:35:46;101891.31;;;-6.05;100.00
34925;BME280;21130;51.728;8.748;2023-02-28T06:38:12;101893.94;;;-6.04;100.00
34925;BME280;21130;51.728;8.748;2023-02-28T06:40:40;101902.03;;;-6.04;100.00
34925;BME280;21130;51.728;8.748;2023-02-28T06:43:07;101902.78;;;-6.02;100.00
34925;BME280;21130;51.728;8.748;2023-02-28T06:45:33;101899.91;;;-5.99;100.00
34925;BME280;21130;51.728;8.748;2023-02-28T06:48:00;101903.16;;;-5.94;100.00
34925;BME280;21130;51.728;8.748;2023-02-28T06:50:26;101910.03;;;-5.90;100.00
34925;BME280;21130;51.728;8.748;2023-02-28T06:52:54;101914.06;;;-5.82;100.00
34925;BME280;21130;51.728;8.748;2023-02-28T06:55:21;101914.53;;;-5.63;100.00
34925;BME280;21130;51.728;8.748;2023-02-28T06:57:49;101911.44;;;-5.44;100.00
34925;BME280;21130;51.728;8.748;2023-02-28T07:00:16;101914.25;;;-5.07;100.00
34925;BME280;21130;51.728;8.748;2023-02-28T07:02:43;101908.53;;;-5.15;100.00
34925;BME280;21130;51.728;8.748;2023-02-28T07:05:09;101918.91;;;-5.09;100.00
34925;BME280;21130;51.728;8.748;2023-02-28T07:07:36;101919.34;;;-5.03;100.00
34925;BME280;21130;51.728;8.748;2023-02-28T07:10:06;101914.25;;;-4.94;100.00
34925;BME280;21130;51.728;8.748;2023-02-28T07:12:32;101927.13;;;-4.85;100.00
34925;BME280;21130;51.728;8.748;2023-02-28T07:15:00;101928.19;;;-4.75;100.00
34925;BME280;21130;51.728;8.748;2023-02-28T07:17:26;101929.78;;;-4.60;100.00
34925;BME280;21130;51.728;8.748;2023-02-28T07:19:53;101926.72;;;-4.42;100.00
34925;BME280;21130;51.728;8.748;2023-02-28T07:22:19;101925.59;;;-4.27;100.00
34925;BME280;21130;51.728;8.748;2023-02-28T07:24:46;101929.75;;;-4.10;100.00
34925;BME280;21130;51.728;8.748;2023-02-28T07:27:12;101925.31;;;-3.87;100.00
34925;BME280;21130;51.728;8.748;2023-02-28T07:29:50;101933.38;;;-3.74;100.00
34925;BME280;21130;51.728;8.748;2023-02-28T07:32:18;101936.78;;;-3.59;100.00
34925;BME280;21130;51.728;8.748;2023-02-28T07:34:45;101931.16;;;-3.45;100.00
34925;BME280;21130;51.728;8.748;2023-02-28T07:37:11;101935.00;;;-3.36;100.00
34925;BME280;21130;51.728;8.748;2023-02-28T07:39:38;101929.22;;;-3.32;100.00
34925;BME280;21130;51.728;8.748;2023-02-28T07:42:07;101932.22;;;-3.23;100.00
34925;BME280;21130;51.728;8.748;2023-02-28T07:44:35;101919.00;;;-3.17;100.00
34925;BME280;21130;51.728;8.748;2023-02-28T07:47:05;101931.09;;;-3.21;100.00
34925;BME280;21130;51.728;8.748;2023-02-28T07:49:34;101919.25;;;-3.20;100.00
34925;BME280;21130;51.728;8.748;2023-02-28T07:52:00;101923.81;;;-3.20;100.00
34925;BME280;21130;51.728;8.748;2023-02-28T07:54:27;101926.53;;;-3.20;100.00
34925;BME280;21130;51.728;8.748;2023-02-28T07:56:54;101931.97;;;-3.20;100.00
34925;BME280;21130;51.728;8.748;2023-02-28T07:59:20;101936.41;;;-3.19;100.00
34925;BME280;21130;51.728;8.748;2023-02-28T08:01:47;101919.50;;;-3.12;100.00
34925;BME280;21130;51.728;8.748;2023-02-28T08:04:15;101917.28;;;-3.07;100.00
34925;BME280;21130;51.728;8.748;2023-02-28T08:06:43;101925.47;;;-2.95;100.00
34925;BME280;21130;51.728;8.748;2023-02-28T08:09:10;101923.22;;;-2.79;100.00
34925;BME280;21130;51.728;8.748;2023-02-28T08:11:36;101922.63;;;-2.60;100.00
34925;BME280;21130;51.728;8.748;2023-02-28T08:14:03;101922.97;;;-2.42;100.00
34925;BME280;21130;51.728;8.748;2023-02-28T08:16:29;101919.75;;;-2.25;100.00
34925;BME280;21130;51.728;8.748;2023-02-28T08:18:56;101917.81;;;-2.02;100.00
34925;BME280;21130;51.728;8.748;2023-02-28T08:21:22;101917.38;;;-1.86;100.00
34925;BME280;21130;51.728;8.748;2023-02-28T08:23:51;101912.13;;;-1.66;100.00
34925;BME280;21130;51.728;8.748;2023-02-28T08:26:18;101922.44;;;-1.49;100.00
34925;BME280;21130;51.728;8.748;2023-02-28T08:28:45;101921.19;;;-1.24;100.00
34925;BME280;21130;51.728;8.748;2023-02-28T08:31:14;101926.50;;;-1.01;100.00
34925;BME280;21130;51.728;8.748;2023-02-28T08:33:41;101917.41;;;-0.81;100.00
34925;BME280;21130;51.728;8.748;2023-02-28T08:36:10;101916.16;;;-0.77;100.00
34925;BME280;21130;51.728;8.748;2023-02-28T08:38:37;101918.31;;;-0.40;100.00
34925;BME280;21130;51.728;8.748;2023-02-28T08:41:07;101921.53;;;-0.15;100.00
34925;BME280;21130;51.728;8.748;2023-02-28T08:43:34;101924.00;;;0.07;100.00
34925;BME280;21130;51.728;8.748;2023-02-28T08:46:01;101924.31;;;0.24;100.00
34925;BME280;21130;51.728;8.748;2023-02-28T08:48:30;101924.47;;;0.41;100.00
34925;BME280;21130;51.728;8.748;2023-02-28T08:50:57;101922.91;;;0.49;100.00
34925;BME280;21130;51.728;8.748;2023-02-28T08:53:24;101919.56;;;0.84;100.00
34925;BME280;21130;51.728;8.748;2023-02-28T08:55:58;101912.38;;;1.20;100.00
34925;BME280;21130;51.728;8.748;2023-02-28T08:58:27;101914.00;;;2.06;100.00
34925;BME280;21130;51.728;8.748;2023-02-28T09:00:54;101914.34;;;3.27;100.00
34925;BME280;21130;51.728;8.748;2023-02-28T09:03:20;101907.25;;;4.01;100.00
34925;BME280;21130;51.728;8.748;2023-02-28T09:05:55;101916.13;;;4.78;82.33
34925;BME280;21130;51.728;8.748;2023-02-28T09:08:23;101908.31;;;5.31;75.59
34925;BME280;21130;51.728;8.748;2023-02-28T09:10:50;101915.56;;;5.79;65.46
34925;BME280;21130;51.728;8.748;2023-02-28T09:13:17;101920.81;;;6.05;59.29
34925;BME280;21130;51.728;8.748;2023-02-28T09:15:45;101910.84;;;5.57;60.34
34925;BME280;21130;51.728;8.748;2023-02-28T09:18:12;101915.25;;;5.74;59.54
34925;BME280;21130;51.728;8.748;2023-02-28T09:20:40;101906.53;;;5.54;57.84
34925;BME280;21130;51.728;8.748;2023-02-28T09:23:07;101908.53;;;5.69;57.60
34925;BME280;21130;51.728;8.748;2023-02-28T09:25:34;101906.09;;;5.26;57.05
34925;BME280;21130;51.728;8.748;2023-02-28T09:28:01;101901.00;;;5.07;58.37
34925;BME280;21130;51.728;8.748;2023-02-28T09:30:28;101902.03;;;4.97;58.15
34925;BME280;21130;51.728;8.748;2023-02-28T09:32:56;101917.50;;;5.71;57.32
34925;BME280;21130;51.728;8.748;2023-02-28T09:35:23;101912.50;;;5.66;55.45
34925;BME280;21130;51.728;8.748;2023-02-28T09:37:52;101916.88;;;5.52;55.74
34925;BME280;21130;51.728;8.748;2023-02-28T09:40:19;101904.34;;;6.20;53.95
34925;BME280;21130;51.728;8.748;2023-02-28T09:42:49;101903.50;;;5.80;53.90
34925;BME280;21130;51.728;8.748;2023-02-28T09:45:22;101905.44;;;5.24;54.94
34925;BME280;21130;51.728;8.748;2023-02-28T09:47:52;101900.66;;;6.05;53.74
34925;BME280;21130;51.728;8.748;2023-02-28T09:50:29;101901.47;;;5.74;54.60
34925;BME280;21130;51.728;8.748;2023-02-28T09:52:58;101903.00;;;6.16;53.41
34925;BME280;21130;51.728;8.748;2023-02-28T09:55:28;101910.47;;;6.08;53.37
34925;BME280;21130;51.728;8.748;2023-02-28T09:57:57;101914.25;;;5.59;54.65
34925;BME280;21130;51.728;8.748;2023-02-28T10:00:30;101912.31;;;5.20;55.87
34925;BME280;21130;51.728;8.748;2023-02-28T10:03:24;101913.72;;;4.91;57.74
34925;BME280;21130;51.728;8.748;2023-02-28T10:05:56;101918.53;;;4.57;59.39
34925;BME280;21130;51.728;8.748;2023-02-28T10:08:55;101919.22;;;4.83;62.42
34925;BME280;21130;51.728;8.748;2023-02-28T10:11:23;101916.47;;;4.50;65.93
34925;BME280;21130;51.728;8.748;2023-02-28T10:13:54;101912.50;;;4.61;65.33
34925;BME280;21130;51.728;8.748;2023-02-28T10:16:31;101902.38;;;5.03;65.22
34925;BME280;21130;51.728;8.748;2023-02-28T10:19:03;101907.41;;;5.55;63.55
34925;BME280;21130;51.728;8.748;2023-02-28T10:21:36;101897.34;;;5.70;58.67
34925;BME280;21130;51.728;8.748;2023-02-28T10:24:05;101903.78;;;6.02;56.50
34925;BME280;21130;51.728;8.748;2023-02-28T10:26:39;101899.56;;;6.14;54.80
34925;BME280;21130;51.728;8.748;2023-02-28T10:29:10;101897.00;;;7.49;52.67
34925;BME280;21130;51.728;8.748;2023-02-28T10:31:38;101892.91;;;7.45;51.68
34925;BME280;21130;51.728;8.748;2023-02-28T10:34:05;101885.88;;;7.43;50.79
34925;BME280;21130;51.728;8.748;2023-02-28T10:36:33;101893.78;;;6.01;54.15
34925;BME280;21130;51.728;8.748;2023-02-28T10:39:00;101892.00;;;5.77;56.38
34925;BME280;21130;51.728;8.748;2023-02-28T10:41:28;101889.13;;;5.54;57.07
34925;BME280;21130;51.728;8.748;2023-02-28T10:44:20;101879.88;;;5.55;59.36
34925;BME280;21130;51.728;8.748;2023-02-28T10:46:47;101890.94;;;5.30;60.71
34925;BME280;21130;51.728;8.748;2023-02-28T10:49:18;101888.69;;;5.34;59.33
34925;BME280;21130;51.728;8.748;2023-02-28T10:51:49;101880.34;;;5.03;60.37
34925;BME280;21130;51.728;8.748;2023-02-28T10:54:19;101889.97;;;5.15;62.90
34925;BME280;21130;51.728;8.748;2023-02-28T10:57:05;101887.97;;;4.51;64.73
34925;BME280;21130;51.728;8.748;2023-02-28T10:59:32;101881.38;;;4.20;68.15
34925;BME280;21130;51.728;8.748;2023-02-28T11:01:59;101888.78;;;4.68;72.52
34925;BME280;21130;51.728;8.748;2023-02-28T11:04:34;101885.69;;;4.63;71.94
34925;BME280;21130;51.728;8.748;2023-02-28T11:07:06;101887.59;;;4.63;69.27
34925;BME280;21130;51.728;8.748;2023-02-28T11:09:45;101886.03;;;4.44;71.03
34925;BME280;21130;51.728;8.748;2023-02-28T11:12:20;101884.69;;;4.72;66.41
34925;BME280;21130;51.728;8.748;2023-02-28T11:14:49;101880.72;;;4.75;66.76
34925;BME280;21130;51.728;8.748;2023-02-28T11:17:20;101875.03;;;4.85;65.79
34925;BME280;21130;51.728;8.748;2023-02-28T11:19:51;101868.16;;;4.89;66.19
34925;BME280;21130;51.728;8.748;2023-02-28T11:22:22;101861.81;;;4.31;64.27
34925;BME280;21130;51.728;8.748;2023-02-28T11:24:51;101877.94;;;4.09;64.05
34925;BME280;21130;51.728;8.748;2023-02-28T11:27:42;101869.69;;;4.01;63.33
34925;BME280;21130;51.728;8.748;2023-02-28T11:30:34;101864.84;;;3.95;63.21
34925;BME280;21130;51.728;8.748;2023-02-28T11:33:14;101865.69;;;3.96;64.05
34925;BME280;21130;51.728;8.748;2023-02-28T11:35:45;101861.81;;;4.15;68.12
34925;BME280;21130;51.728;8.748;2023-02-28T11:38:15;101872.13;;;4.94;66.19
34925;BME280;21130;51.728;8.748;2023-02-28T11:40:47;101850.03;;;5.19;61.60
34925;BME280;21130;51.728;8.748;2023-02-28T11:43:25;101852.44;;;5.22;60.32
34925;BME280;21130;51.728;8.748;2023-02-28T11:46:02;101853.38;;;5.46;60.07
34925;BME280;21130;51.728;8.748;2023-02-28T11:48:34;101847.69;;;6.41;57.94
34925;BME280;21130;51.728;8.748;2023-02-28T11:51:11;101844.22;;;6.85;54.91
34925;BME280;21130;51.728;8.748;2023-02-28T11:53:51;101845.44;;;6.97;53.36
34925;BME280;21130;51.728;8.748;2023-02-28T11:56:26;101842.50;;;7.13;52.04
34925;BME280;21130;51.728;8.748;2023-02-28T11:59:18;101840.81;;;6.60;52.96
34925;BME280;21130;51.728;8.748;2023-02-28T12:02:05;101841.13;;;6.19;54.17
34925;BME280;21130;51.728;8.748;2023-02-28T12:04:44;101836.09;;;6.45;55.18
34925;BME280;21130;51.728;8.748;2023-02-28T12:07:18;101829.06;;;6.43;53.94
34925;BME280;21130;51.728;8.748;2023-02-28T12:09:57;101839.34;;;6.26;52.81
34925;BME280;21130;51.728;8.748;2023-02-28T12:12:37;101831.69;;;5.51;52.73
34925;BME280;21130;51.728;8.748;2023-02-28T12:15:18;101823.72;;;5.95;54.33
34925;BME280;21130;51.728;8.748;2023-02-28T12:17:59;101821.53;;;5.82;53.44
34925;BME280;21130;51.728;8.748;2023-02-28T12:20:33;101824.72;;;6.02;53.37
34925;BME280;21130;51.728;8.748;2023-02-28T12:23:25;101813.38;;;5.89;53.19
34925;BME280;21130;51.728;8.748;2023-02-28T12:26:03;101807.63;;;6.07;55.29
34925;BME280;21130;51.728;8.748;2023-02-28T12:28:35;101808.78;;;6.36;53.66
34925;BME280;21130;51.728;8.748;2023-02-28T12:31:08;101805.09;;;6.96;52.99
34925;BME280;21130;51.728;8.748;2023-02-28T12:33:41;101800.97;;;6.39;53.38
34925;BME280;21130;51.728;8.748;2023-02-28T12:36:11;101809.88;;;6.64;54.05
34925;BME280;21130;51.728;8.748;2023-02-28T12:38:44;101811.53;;;6.36;54.78
34925;BME280;21130;51.728;8.748;2023-02-28T12:41:17;101809.94;;;5.95;55.01
34925;BME280;21130;51.728;8.748;2023-02-28T12:43:48;101807.03;;;5.57;56.40
34925;BME280;21130;51.728;8.748;2023-02-28T12:46:19;101804.63;;;5.85;57.81
34925;BME280;21130;51.728;8.748;2023-02-28T12:48:50;101793.66;;;6.09;57.47
34925;BME280;21130;51.728;8.748;2023-02-28T12:51:19;101799.44;;;5.91;56.56
34925;BME280;21130;51.728;8.748;2023-02-28T12:53:56;101792.63;;;5.78;55.54
34925;BME280;21130;51.728;8.748;2023-02-28T12:56:35;101785.88;;;5.81;57.30
34925;BME280;21130;51.728;8.748;2023-02-28T12:59:12;101780.91;;;6.31;56.11
34925;BME280;21130;51.728;8.748;2023-02-28T13:01:57;101778.91;;;6.92;54.85
34925;BME280;21130;51.728;8.748;2023-02-28T13:04:43;101774.44;;;6.76;52.70